MarsUP De Loupiac — FO3064 — position and weather

sailwx.info

Track history (hours):
 
Tides and Currents Weather Stations Pressure Air Temp Water Temp Dewpoint Dewpoint Depression Visibility Wind Speed Wind Dir Waves Ship Positions

MarsUP De Loupiac

Last reported at 2017-Sep-04 14:25 UTC. Time now 2017-Sep-26 18:31 UTC.
Position N 45°30' W 000°53'.
Warning: this ship's position is 22 days out of date.

Length 12 m.

Type: Pleasure craft. MMSI: 227350950.

Date/timePositionNaut miles runAvg speedWind from/ knotsBaromVisibWave heightAir tempDewpointWater temp
2017-Sep-04 14:25N 45°30' W 000°53'2 4.9
2017-Sep-04 13:59N 45°32' W 000°56'3 5.7
2017-Sep-04 13:30N 45°33' W 000°59'3 5.7
2017-Sep-04 12:59N 45°36' W 001°01'1 0.0
2017-Sep-02 22:26N 45°37' W 001°02'1 2.5
2017-Sep-02 21:59N 45°37' W 001°03'52 3.8
2017-Sep-02 08:15N 46°21' W 001°43'2 4.4
2017-Sep-02 07:47N 46°23' W 001°44'1 4.2
2017-Sep-02 07:30N 46°24' W 001°45'2 4.2
2017-Sep-02 07:00N 46°26' W 001°46'2 4.2
2017-Sep-02 06:30N 46°28' W 001°47'2 4.2
2017-Sep-02 06:00N 46°30' W 001°48'  
2017-Aug-29 16:22N 46°30' W 001°48'0 0.5
2017-Aug-29 15:58N 46°30' W 001°48'1 2.9
2017-Aug-29 15:30N 46°29' W 001°47'  
2017-Aug-25 15:09N 47°23' W 002°43'1 3.7
2017-Aug-25 14:59N 47°23' W 002°44'  
Track history (hours):
 
Tides and Currents Weather Stations Pressure Air Temp Water Temp Dewpoint Dewpoint Depression Visibility Wind Speed Wind Dir Waves Ship Positions

MarsUP De Loupiac

Last reported at 2017-Sep-04 14:25 UTC. Time now 2017-Sep-26 18:31 UTC.
Position N 45°30' W 000°53'.
Warning: this ship's position is 22 days out of date.

Length 12 m.

Type: Pleasure craft. MMSI: 227350950.

Date/timePositionNaut miles runAvg speedWind from/ knotsBaromVisibWave heightAir tempDewpointWater temp
2017-Sep-04 14:25N 45°30' W 000°53'2 4.9
2017-Sep-04 13:59N 45°32' W 000°56'3 5.7
2017-Sep-04 13:30N 45°33' W 000°59'3 5.7
2017-Sep-04 12:59N 45°36' W 001°01'1 0.0
2017-Sep-02 22:26N 45°37' W 001°02'1 2.5
2017-Sep-02 21:59N 45°37' W 001°03'52 3.8
2017-Sep-02 08:15N 46°21' W 001°43'2 4.4
2017-Sep-02 07:47N 46°23' W 001°44'1 4.2
2017-Sep-02 07:30N 46°24' W 001°45'2 4.2
2017-Sep-02 07:00N 46°26' W 001°46'2 4.2
2017-Sep-02 06:30N 46°28' W 001°47'2 4.2
2017-Sep-02 06:00N 46°30' W 001°48'  
2017-Aug-29 16:22N 46°30' W 001°48'0 0.5
2017-Aug-29 15:58N 46°30' W 001°48'1 2.9
2017-Aug-29 15:30N 46°29' W 001°47'  
2017-Aug-25 15:09N 47°23' W 002°43'1 3.7
2017-Aug-25 14:59N 47°23' W 002°44'  

Dump ship's entire track history